sensor_id;sensor_type;location;lat;lon;timestamp;P1;durP1;ratioP1;P2;durP2;ratioP2
37303;SDS011;23188;51.188;16.374;2023-05-07T00:00:40;14.40;;;8.30;;
37303;SDS011;23188;51.188;16.374;2023-05-07T00:04:56;14.90;;;9.60;;
37303;SDS011;23188;51.188;16.374;2023-05-07T00:08:59;11.70;;;8.80;;
37303;SDS011;23188;51.188;16.374;2023-05-07T00:13:02;11.50;;;9.50;;
37303;SDS011;23188;51.188;16.374;2023-05-07T00:17:03;14.40;;;9.80;;
37303;SDS011;23188;51.188;16.374;2023-05-07T00:21:06;9.90;;;8.30;;
37303;SDS011;23188;51.188;16.374;2023-05-07T00:25:07;19.00;;;8.70;;
37303;SDS011;23188;51.188;16.374;2023-05-07T00:29:10;12.30;;;8.30;;
37303;SDS011;23188;51.188;16.374;2023-05-07T00:33:12;9.50;;;8.50;;
37303;SDS011;23188;51.188;16.374;2023-05-07T00:37:14;28.40;;;9.30;;
37303;SDS011;23188;51.188;16.374;2023-05-07T00:41:15;13.10;;;8.10;;
37303;SDS011;23188;51.188;16.374;2023-05-07T00:45:17;12.80;;;9.60;;
37303;SDS011;23188;51.188;16.374;2023-05-07T00:49:19;9.70;;;7.90;;
37303;SDS011;23188;51.188;16.374;2023-05-07T00:53:21;8.30;;;7.30;;
37303;SDS011;23188;51.188;16.374;2023-05-07T00:57:23;10.30;;;7.80;;
37303;SDS011;23188;51.188;16.374;2023-05-07T01:01:26;9.10;;;6.80;;
37303;SDS011;23188;51.188;16.374;2023-05-07T01:05:28;12.70;;;8.50;;
37303;SDS011;23188;51.188;16.374;2023-05-07T01:09:32;11.90;;;9.80;;
37303;SDS011;23188;51.188;16.374;2023-05-07T01:13:37;12.30;;;8.00;;
37303;SDS011;23188;51.188;16.374;2023-05-07T01:21:47;16.00;;;8.80;;
37303;SDS011;23188;51.188;16.374;2023-05-07T01:29:54;8.90;;;7.80;;
37303;SDS011;23188;51.188;16.374;2023-05-07T01:33:59;12.30;;;8.40;;
37303;SDS011;23188;51.188;16.374;2023-05-07T01:38:03;12.30;;;8.60;;
37303;SDS011;23188;51.188;16.374;2023-05-07T01:42:07;11.50;;;9.20;;
37303;SDS011;23188;51.188;16.374;2023-05-07T01:46:08;8.90;;;7.40;;
37303;SDS011;23188;51.188;16.374;2023-05-07T01:50:12;10.50;;;9.40;;
37303;SDS011;23188;51.188;16.374;2023-05-07T01:54:14;7.00;;;6.30;;
37303;SDS011;23188;51.188;16.374;2023-05-07T01:58:16;9.10;;;7.60;;
37303;SDS011;23188;51.188;16.374;2023-05-07T02:02:18;12.10;;;9.10;;
37303;SDS011;23188;51.188;16.374;2023-05-07T02:06:20;9.70;;;8.00;;
37303;SDS011;23188;51.188;16.374;2023-05-07T02:10:22;9.90;;;8.50;;
37303;SDS011;23188;51.188;16.374;2023-05-07T02:14:24;8.40;;;7.50;;
37303;SDS011;23188;51.188;16.374;2023-05-07T02:18:27;8.80;;;7.30;;
37303;SDS011;23188;51.188;16.374;2023-05-07T02:22:28;12.60;;;9.10;;
37303;SDS011;23188;51.188;16.374;2023-05-07T02:26:31;9.90;;;8.80;;
37303;SDS011;23188;51.188;16.374;2023-05-07T02:30:33;10.50;;;8.90;;
37303;SDS011;23188;51.188;16.374;2023-05-07T02:34:35;13.10;;;9.30;;
37303;SDS011;23188;51.188;16.374;2023-05-07T02:38:37;13.60;;;10.20;;
37303;SDS011;23188;51.188;16.374;2023-05-07T02:42:40;16.50;;;10.80;;
37303;SDS011;23188;51.188;16.374;2023-05-07T02:46:42;18.10;;;12.50;;
37303;SDS011;23188;51.188;16.374;2023-05-07T02:50:44;15.00;;;10.70;;
37303;SDS011;23188;51.188;16.374;2023-05-07T02:54:45;16.00;;;11.00;;
37303;SDS011;23188;51.188;16.374;2023-05-07T02:58:47;13.90;;;10.70;;
37303;SDS011;23188;51.188;16.374;2023-05-07T03:02:49;16.10;;;11.40;;
37303;SDS011;23188;51.188;16.374;2023-05-07T03:06:51;12.70;;;10.50;;
37303;SDS011;23188;51.188;16.374;2023-05-07T03:10:52;16.50;;;11.40;;
37303;SDS011;23188;51.188;16.374;2023-05-07T03:14:54;15.80;;;10.90;;
37303;SDS011;23188;51.188;16.374;2023-05-07T03:18:56;11.90;;;10.50;;
37303;SDS011;23188;51.188;16.374;2023-05-07T03:22:58;13.80;;;10.70;;
37303;SDS011;23188;51.188;16.374;2023-05-07T03:27:00;12.60;;;11.00;;
37303;SDS011;23188;51.188;16.374;2023-05-07T03:31:02;14.70;;;10.90;;
37303;SDS011;23188;51.188;16.374;2023-05-07T03:35:04;15.90;;;12.10;;
37303;SDS011;23188;51.188;16.374;2023-05-07T03:39:06;13.10;;;10.80;;
37303;SDS011;23188;51.188;16.374;2023-05-07T03:43:09;15.20;;;10.50;;
37303;SDS011;23188;51.188;16.374;2023-05-07T03:47:11;15.10;;;12.30;;
37303;SDS011;23188;51.188;16.374;2023-05-07T03:51:14;13.50;;;11.40;;
37303;SDS011;23188;51.188;16.374;2023-05-07T03:55:16;18.90;;;11.80;;
37303;SDS011;23188;51.188;16.374;2023-05-07T03:59:19;13.40;;;12.00;;
37303;SDS011;23188;51.188;16.374;2023-05-07T04:03:21;16.00;;;13.20;;
37303;SDS011;23188;51.188;16.374;2023-05-07T04:07:23;19.20;;;13.20;;
37303;SDS011;23188;51.188;16.374;2023-05-07T04:11:26;14.00;;;12.60;;
37303;SDS011;23188;51.188;16.374;2023-05-07T04:15:28;18.70;;;12.30;;
37303;SDS011;23188;51.188;16.374;2023-05-07T04:19:30;13.00;;;11.10;;
37303;SDS011;23188;51.188;16.374;2023-05-07T04:23:35;15.30;;;11.40;;
37303;SDS011;23188;51.188;16.374;2023-05-07T04:27:36;19.30;;;12.60;;
37303;SDS011;23188;51.188;16.374;2023-05-07T04:31:38;21.10;;;14.00;;
37303;SDS011;23188;51.188;16.374;2023-05-07T04:35:40;14.70;;;12.00;;
37303;SDS011;23188;51.188;16.374;2023-05-07T04:39:42;14.10;;;12.60;;
37303;SDS011;23188;51.188;16.374;2023-05-07T04:43:44;13.20;;;11.80;;
37303;SDS011;23188;51.188;16.374;2023-05-07T04:47:46;16.00;;;13.40;;
37303;SDS011;23188;51.188;16.374;2023-05-07T04:51:49;18.10;;;14.30;;
37303;SDS011;23188;51.188;16.374;2023-05-07T04:55:55;18.00;;;13.30;;
37303;SDS011;23188;51.188;16.374;2023-05-07T04:59:59;20.00;;;14.10;;
37303;SDS011;23188;51.188;16.374;2023-05-07T05:04:01;15.10;;;12.40;;
37303;SDS011;23188;51.188;16.374;2023-05-07T05:08:03;13.70;;;11.80;;
37303;SDS011;23188;51.188;16.374;2023-05-07T05:12:05;11.70;;;10.50;;
37303;SDS011;23188;51.188;16.374;2023-05-07T05:16:08;12.00;;;10.80;;
37303;SDS011;23188;51.188;16.374;2023-05-07T05:20:10;12.30;;;10.80;;
37303;SDS011;23188;51.188;16.374;2023-05-07T05:24:13;10.70;;;9.10;;
37303;SDS011;23188;51.188;16.374;2023-05-07T05:28:14;10.60;;;8.70;;
37303;SDS011;23188;51.188;16.374;2023-05-07T05:32:16;13.30;;;10.70;;
37303;SDS011;23188;51.188;16.374;2023-05-07T05:36:18;11.90;;;7.90;;
37303;SDS011;23188;51.188;16.374;2023-05-07T05:40:20;8.60;;;7.80;;
37303;SDS011;23188;51.188;16.374;2023-05-07T05:44:21;7.20;;;6.30;;
37303;SDS011;23188;51.188;16.374;2023-05-07T05:48:23;8.00;;;7.20;;
37303;SDS011;23188;51.188;16.374;2023-05-07T05:52:25;6.30;;;5.50;;
37303;SDS011;23188;51.188;16.374;2023-05-07T05:56:27;7.10;;;6.20;;
37303;SDS011;23188;51.188;16.374;2023-05-07T06:00:29;6.80;;;6.10;;
37303;SDS011;23188;51.188;16.374;2023-05-07T06:04:31;7.80;;;7.00;;
37303;SDS011;23188;51.188;16.374;2023-05-07T06:08:33;10.30;;;6.90;;
37303;SDS011;23188;51.188;16.374;2023-05-07T06:12:34;7.00;;;6.30;;
37303;SDS011;23188;51.188;16.374;2023-05-07T06:16:36;8.80;;;7.60;;
37303;SDS011;23188;51.188;16.374;2023-05-07T06:20:39;6.50;;;5.30;;
37303;SDS011;23188;51.188;16.374;2023-05-07T06:24:41;6.80;;;5.80;;
37303;SDS011;23188;51.188;16.374;2023-05-07T06:28:42;6.30;;;5.40;;
37303;SDS011;23188;51.188;16.374;2023-05-07T06:32:44;5.50;;;4.90;;
37303;SDS011;23188;51.188;16.374;2023-05-07T06:36:45;5.70;;;4.30;;
37303;SDS011;23188;51.188;16.374;2023-05-07T06:40:48;12.50;;;5.20;;
37303;SDS011;23188;51.188;16.374;2023-05-07T06:44:50;4.50;;;4.10;;
37303;SDS011;23188;51.188;16.374;2023-05-07T06:48:52;6.40;;;3.90;;
37303;SDS011;23188;51.188;16.374;2023-05-07T06:52:53;4.20;;;3.80;;
37303;SDS011;23188;51.188;16.374;2023-05-07T06:56:55;3.50;;;3.20;;
37303;SDS011;23188;51.188;16.374;2023-05-07T07:00:56;4.20;;;3.30;;
37303;SDS011;23188;51.188;16.374;2023-05-07T07:04:58;4.60;;;3.70;;
37303;SDS011;23188;51.188;16.374;2023-05-07T07:08:59;5.50;;;3.70;;
37303;SDS011;23188;51.188;16.374;2023-05-07T07:13:01;8.30;;;4.50;;
37303;SDS011;23188;51.188;16.374;2023-05-07T07:17:03;3.80;;;3.50;;
37303;SDS011;23188;51.188;16.374;2023-05-07T07:21:06;4.40;;;4.00;;
37303;SDS011;23188;51.188;16.374;2023-05-07T07:25:08;3.30;;;3.10;;
37303;SDS011;23188;51.188;16.374;2023-05-07T07:29:11;4.40;;;4.00;;
37303;SDS011;23188;51.188;16.374;2023-05-07T07:33:13;4.70;;;3.80;;
37303;SDS011;23188;51.188;16.374;2023-05-07T07:37:15;5.70;;;4.60;;
37303;SDS011;23188;51.188;16.374;2023-05-07T07:41:17;3.90;;;3.40;;
37303;SDS011;23188;51.188;16.374;2023-05-07T07:45:19;3.30;;;2.90;;
37303;SDS011;23188;51.188;16.374;2023-05-07T07:49:20;5.50;;;3.80;;
37303;SDS011;23188;51.188;16.374;2023-05-07T07:53:22;13.50;;;7.30;;
37303;SDS011;23188;51.188;16.374;2023-05-07T07:57:24;8.30;;;5.20;;
37303;SDS011;23188;51.188;16.374;2023-05-07T08:01:26;7.00;;;6.40;;
37303;SDS011;23188;51.188;16.374;2023-05-07T08:05:28;8.80;;;7.90;;
37303;SDS011;23188;51.188;16.374;2023-05-07T08:09:30;7.20;;;6.20;;
37303;SDS011;23188;51.188;16.374;2023-05-07T08:13:32;17.20;;;12.50;;
37303;SDS011;23188;51.188;16.374;2023-05-07T08:17:34;18.20;;;15.40;;
37303;SDS011;23188;51.188;16.374;2023-05-07T08:21:38;11.70;;;9.80;;
37303;SDS011;23188;51.188;16.374;2023-05-07T08:25:40;8.10;;;7.30;;
37303;SDS011;23188;51.188;16.374;2023-05-07T08:29:43;15.10;;;11.70;;
37303;SDS011;23188;51.188;16.374;2023-05-07T08:33:49;9.40;;;7.60;;
37303;SDS011;23188;51.188;16.374;2023-05-07T08:37:52;13.70;;;8.90;;
37303;SDS011;23188;51.188;16.374;2023-05-07T08:41:54;5.70;;;4.80;;
37303;SDS011;23188;51.188;16.374;2023-05-07T08:45:58;8.80;;;6.80;;
37303;SDS011;23188;51.188;16.374;2023-05-07T08:50:03;4.60;;;4.20;;
37303;SDS011;23188;51.188;16.374;2023-05-07T08:54:06;5.80;;;4.70;;
37303;SDS011;23188;51.188;16.374;2023-05-07T08:58:08;5.70;;;4.80;;
37303;SDS011;23188;51.188;16.374;2023-05-07T09:02:10;4.70;;;4.10;;
37303;SDS011;23188;51.188;16.374;2023-05-07T09:06:12;3.80;;;3.50;;
37303;SDS011;23188;51.188;16.374;2023-05-07T09:10:14;5.30;;;3.40;;
37303;SDS011;23188;51.188;16.374;2023-05-07T09:14:16;6.20;;;4.90;;
37303;SDS011;23188;51.188;16.374;2023-05-07T09:18:18;4.30;;;3.90;;
37303;SDS011;23188;51.188;16.374;2023-05-07T09:22:20;6.80;;;5.60;;
37303;SDS011;23188;51.188;16.374;2023-05-07T09:26:22;10.90;;;8.50;;
37303;SDS011;23188;51.188;16.374;2023-05-07T09:30:31;14.50;;;7.30;;
37303;SDS011;23188;51.188;16.374;2023-05-07T09:34:34;7.00;;;6.40;;
37303;SDS011;23188;51.188;16.374;2023-05-07T09:38:37;9.10;;;6.30;;
37303;SDS011;23188;51.188;16.374;2023-05-07T09:42:39;8.00;;;7.00;;
37303;SDS011;23188;51.188;16.374;2023-05-07T09:46:42;8.20;;;7.40;;
37303;SDS011;23188;51.188;16.374;2023-05-07T09:50:49;6.80;;;6.10;;
37303;SDS011;23188;51.188;16.374;2023-05-07T09:54:52;7.90;;;6.70;;
37303;SDS011;23188;51.188;16.374;2023-05-07T09:58:57;8.70;;;7.20;;
37303;SDS011;23188;51.188;16.374;2023-05-07T10:03:02;10.10;;;7.60;;
37303;SDS011;23188;51.188;16.374;2023-05-07T10:07:06;10.30;;;8.40;;
37303;SDS011;23188;51.188;16.374;2023-05-07T10:11:08;8.50;;;7.80;;
37303;SDS011;23188;51.188;16.374;2023-05-07T10:15:11;9.10;;;8.20;;
37303;SDS011;23188;51.188;16.374;2023-05-07T10:19:15;9.50;;;8.60;;
37303;SDS011;23188;51.188;16.374;2023-05-07T10:23:19;9.20;;;7.40;;
37303;SDS011;23188;51.188;16.374;2023-05-07T10:27:24;11.40;;;8.70;;
37303;SDS011;23188;51.188;16.374;2023-05-07T10:35:38;11.90;;;8.40;;
37303;SDS011;23188;51.188;16.374;2023-05-07T10:39:42;14.40;;;9.30;;
37303;SDS011;23188;51.188;16.374;2023-05-07T10:43:45;8.10;;;7.30;;
37303;SDS011;23188;51.188;16.374;2023-05-07T10:52:30;7.10;;;5.90;;
37303;SDS011;23188;51.188;16.374;2023-05-07T10:56:31;6.00;;;5.50;;
37303;SDS011;23188;51.188;16.374;2023-05-07T11:04:37;7.60;;;6.90;;
37303;SDS011;23188;51.188;16.374;2023-05-07T11:08:52;6.80;;;6.20;;
37303;SDS011;23188;51.188;16.374;2023-05-07T11:12:54;6.60;;;6.00;;
37303;SDS011;23188;51.188;16.374;2023-05-07T11:17:02;9.60;;;6.10;;
37303;SDS011;23188;51.188;16.374;2023-05-07T11:21:04;22.50;;;11.90;;
37303;SDS011;23188;51.188;16.374;2023-05-07T11:25:07;15.00;;;7.70;;
37303;SDS011;23188;51.188;16.374;2023-05-07T11:29:12;8.50;;;6.10;;
37303;SDS011;23188;51.188;16.374;2023-05-07T11:33:24;8.70;;;6.60;;
37303;SDS011;23188;51.188;16.374;2023-05-07T11:37:27;5.40;;;4.90;;
37303;SDS011;23188;51.188;16.374;2023-05-07T11:41:34;5.20;;;4.60;;
37303;SDS011;23188;51.188;16.374;2023-05-07T11:45:38;4.80;;;3.90;;
37303;SDS011;23188;51.188;16.374;2023-05-07T11:49:41;5.40;;;4.30;;
37303;SDS011;23188;51.188;16.374;2023-05-07T11:53:43;5.00;;;4.60;;
37303;SDS011;23188;51.188;16.374;2023-05-07T11:57:46;5.60;;;4.90;;
37303;SDS011;23188;51.188;16.374;2023-05-07T12:01:49;5.40;;;3.60;;
37303;SDS011;23188;51.188;16.374;2023-05-07T12:05:51;5.80;;;4.70;;
37303;SDS011;23188;51.188;16.374;2023-05-07T12:09:53;5.10;;;4.60;;
37303;SDS011;23188;51.188;16.374;2023-05-07T12:13:55;4.00;;;3.60;;
37303;SDS011;23188;51.188;16.374;2023-05-07T12:18:00;3.70;;;3.40;;
37303;SDS011;23188;51.188;16.374;2023-05-07T12:22:03;6.80;;;4.20;;
37303;SDS011;23188;51.188;16.374;2023-05-07T12:26:04;4.40;;;3.80;;
37303;SDS011;23188;51.188;16.374;2023-05-07T12:30:09;6.60;;;5.80;;
37303;SDS011;23188;51.188;16.374;2023-05-07T12:34:11;7.30;;;4.80;;
37303;SDS011;23188;51.188;16.374;2023-05-07T12:38:14;6.20;;;4.10;;
37303;SDS011;23188;51.188;16.374;2023-05-07T12:42:20;4.80;;;4.20;;
37303;SDS011;23188;51.188;16.374;2023-05-07T12:46:28;8.40;;;5.60;;
37303;SDS011;23188;51.188;16.374;2023-05-07T12:50:33;5.00;;;4.50;;
37303;SDS011;23188;51.188;16.374;2023-05-07T12:54:36;7.30;;;5.00;;
37303;SDS011;23188;51.188;16.374;2023-05-07T12:58:39;6.70;;;4.60;;
37303;SDS011;23188;51.188;16.374;2023-05-07T13:02:41;5.70;;;5.20;;
37303;SDS011;23188;51.188;16.374;2023-05-07T13:06:47;10.70;;;5.40;;
37303;SDS011;23188;51.188;16.374;2023-05-07T13:10:49;6.00;;;4.10;;
37303;SDS011;23188;51.188;16.374;2023-05-07T13:14:51;5.00;;;4.10;;
37303;SDS011;23188;51.188;16.374;2023-05-07T13:18:52;5.60;;;4.60;;
37303;SDS011;23188;51.188;16.374;2023-05-07T13:22:54;5.90;;;4.60;;
37303;SDS011;23188;51.188;16.374;2023-05-07T13:26:56;4.70;;;3.90;;
37303;SDS011;23188;51.188;16.374;2023-05-07T13:30:59;5.40;;;4.80;;
37303;SDS011;23188;51.188;16.374;2023-05-07T13:35:01;4.60;;;4.30;;
37303;SDS011;23188;51.188;16.374;2023-05-07T13:39:03;6.00;;;4.80;;
37303;SDS011;23188;51.188;16.374;2023-05-07T13:43:05;6.50;;;4.70;;
37303;SDS011;23188;51.188;16.374;2023-05-07T13:47:07;3.90;;;3.60;;
37303;SDS011;23188;51.188;16.374;2023-05-07T13:51:09;3.00;;;2.70;;
37303;SDS011;23188;51.188;16.374;2023-05-07T13:55:11;5.60;;;5.10;;
37303;SDS011;23188;51.188;16.374;2023-05-07T13:59:15;4.10;;;3.70;;
37303;SDS011;23188;51.188;16.374;2023-05-07T14:03:17;6.10;;;4.20;;
37303;SDS011;23188;51.188;16.374;2023-05-07T14:07:20;5.10;;;4.10;;
37303;SDS011;23188;51.188;16.374;2023-05-07T14:11:22;4.90;;;4.40;;
37303;SDS011;23188;51.188;16.374;2023-05-07T14:15:27;4.60;;;3.90;;
37303;SDS011;23188;51.188;16.374;2023-05-07T14:19:29;4.50;;;4.00;;
37303;SDS011;23188;51.188;16.374;2023-05-07T14:23:33;8.30;;;5.60;;
37303;SDS011;23188;51.188;16.374;2023-05-07T14:27:43;5.70;;;4.90;;
37303;SDS011;23188;51.188;16.374;2023-05-07T14:31:45;5.30;;;4.20;;
37303;SDS011;23188;51.188;16.374;2023-05-07T14:35:47;4.90;;;4.50;;
37303;SDS011;23188;51.188;16.374;2023-05-07T14:39:50;5.40;;;4.90;;
37303;SDS011;23188;51.188;16.374;2023-05-07T14:43:52;6.10;;;5.40;;
37303;SDS011;23188;51.188;16.374;2023-05-07T14:47:54;6.70;;;5.70;;
37303;SDS011;23188;51.188;16.374;2023-05-07T14:51:57;7.50;;;6.60;;
37303;SDS011;23188;51.188;16.374;2023-05-07T14:56:00;8.10;;;4.90;;
37303;SDS011;23188;51.188;16.374;2023-05-07T15:00:03;6.90;;;6.20;;
37303;SDS011;23188;51.188;16.374;2023-05-07T15:04:05;7.80;;;6.40;;
37303;SDS011;23188;51.188;16.374;2023-05-07T15:08:08;7.80;;;6.90;;
37303;SDS011;23188;51.188;16.374;2023-05-07T15:12:13;6.50;;;5.20;;
37303;SDS011;23188;51.188;16.374;2023-05-07T15:16:16;5.00;;;4.60;;
37303;SDS011;23188;51.188;16.374;2023-05-07T15:20:19;13.80;;;5.50;;
37303;SDS011;23188;51.188;16.374;2023-05-07T15:29:14;6.30;;;5.80;;
37303;SDS011;23188;51.188;16.374;2023-05-07T15:33:15;7.80;;;4.80;;
37303;SDS011;23188;51.188;16.374;2023-05-07T15:37:17;5.90;;;5.10;;
37303;SDS011;23188;51.188;16.374;2023-05-07T15:41:18;6.30;;;5.40;;
37303;SDS011;23188;51.188;16.374;2023-05-07T15:45:27;6.10;;;5.00;;
37303;SDS011;23188;51.188;16.374;2023-05-07T15:49:28;7.80;;;5.70;;
37303;SDS011;23188;51.188;16.374;2023-05-07T15:53:30;11.60;;;7.10;;
37303;SDS011;23188;51.188;16.374;2023-05-07T15:57:31;8.60;;;7.40;;
37303;SDS011;23188;51.188;16.374;2023-05-07T16:01:33;8.40;;;7.50;;
37303;SDS011;23188;51.188;16.374;2023-05-07T16:05:35;5.90;;;5.30;;
37303;SDS011;23188;51.188;16.374;2023-05-07T16:09:36;7.60;;;5.70;;
37303;SDS011;23188;51.188;16.374;2023-05-07T16:18:29;9.60;;;4.90;;
37303;SDS011;23188;51.188;16.374;2023-05-07T16:22:31;8.30;;;5.80;;
37303;SDS011;23188;51.188;16.374;2023-05-07T16:26:33;6.10;;;4.70;;
37303;SDS011;23188;51.188;16.374;2023-05-07T16:30:34;6.80;;;4.50;;
37303;SDS011;23188;51.188;16.374;2023-05-07T16:34:36;4.80;;;4.40;;
37303;SDS011;23188;51.188;16.374;2023-05-07T16:38:37;5.30;;;4.50;;
37303;SDS011;23188;51.188;16.374;2023-05-07T16:42:39;9.80;;;5.40;;
37303;SDS011;23188;51.188;16.374;2023-05-07T16:46:40;8.70;;;4.50;;
37303;SDS011;23188;51.188;16.374;2023-05-07T16:50:41;6.40;;;5.30;;
37303;SDS011;23188;51.188;16.374;2023-05-07T16:54:44;6.10;;;5.50;;
37303;SDS011;23188;51.188;16.374;2023-05-07T16:58:46;6.80;;;6.20;;
37303;SDS011;23188;51.188;16.374;2023-05-07T17:02:47;8.80;;;5.20;;
37303;SDS011;23188;51.188;16.374;2023-05-07T17:06:49;6.40;;;5.50;;
37303;SDS011;23188;51.188;16.374;2023-05-07T17:10:50;7.50;;;5.70;;
37303;SDS011;23188;51.188;16.374;2023-05-07T17:14:57;8.20;;;6.20;;
37303;SDS011;23188;51.188;16.374;2023-05-07T17:18:59;5.90;;;5.30;;
37303;SDS011;23188;51.188;16.374;2023-05-07T17:23:00;5.70;;;5.20;;
37303;SDS011;23188;51.188;16.374;2023-05-07T17:27:02;6.50;;;4.20;;
37303;SDS011;23188;51.188;16.374;2023-05-07T17:31:03;5.90;;;5.20;;
37303;SDS011;23188;51.188;16.374;2023-05-07T17:35:05;5.80;;;5.30;;
37303;SDS011;23188;51.188;16.374;2023-05-07T17:39:10;5.90;;;4.90;;
37303;SDS011;23188;51.188;16.374;2023-05-07T17:43:11;5.70;;;5.20;;
37303;SDS011;23188;51.188;16.374;2023-05-07T17:47:12;7.40;;;5.70;;
37303;SDS011;23188;51.188;16.374;2023-05-07T17:51:14;6.70;;;5.30;;
37303;SDS011;23188;51.188;16.374;2023-05-07T17:55:15;5.20;;;4.50;;
37303;SDS011;23188;51.188;16.374;2023-05-07T17:59:17;5.80;;;4.30;;
37303;SDS011;23188;51.188;16.374;2023-05-07T18:03:18;5.70;;;5.20;;
37303;SDS011;23188;51.188;16.374;2023-05-07T18:07:20;7.40;;;4.90;;
37303;SDS011;23188;51.188;16.374;2023-05-07T18:11:22;5.10;;;4.60;;
37303;SDS011;23188;51.188;16.374;2023-05-07T18:15:24;5.00;;;4.40;;
37303;SDS011;23188;51.188;16.374;2023-05-07T18:19:26;8.60;;;5.60;;
37303;SDS011;23188;51.188;16.374;2023-05-07T18:23:29;5.90;;;5.20;;
37303;SDS011;23188;51.188;16.374;2023-05-07T18:27:30;5.40;;;4.70;;
37303;SDS011;23188;51.188;16.374;2023-05-07T18:31:32;5.70;;;4.50;;
37303;SDS011;23188;51.188;16.374;2023-05-07T18:35:36;5.50;;;3.90;;
37303;SDS011;23188;51.188;16.374;2023-05-07T18:39:38;8.30;;;5.70;;
37303;SDS011;23188;51.188;16.374;2023-05-07T18:43:39;10.60;;;6.90;;
37303;SDS011;23188;51.188;16.374;2023-05-07T18:47:40;7.50;;;5.50;;
37303;SDS011;23188;51.188;16.374;2023-05-07T18:51:42;8.60;;;6.60;;
37303;SDS011;23188;51.188;16.374;2023-05-07T18:55:51;5.90;;;5.40;;
37303;SDS011;23188;51.188;16.374;2023-05-07T18:59:53;7.40;;;4.70;;
37303;SDS011;23188;51.188;16.374;2023-05-07T19:03:57;5.40;;;4.10;;
37303;SDS011;23188;51.188;16.374;2023-05-07T19:07:59;5.20;;;4.70;;
37303;SDS011;23188;51.188;16.374;2023-05-07T19:12:01;8.50;;;5.60;;
37303;SDS011;23188;51.188;16.374;2023-05-07T19:16:03;5.40;;;3.70;;
37303;SDS011;23188;51.188;16.374;2023-05-07T19:20:05;8.10;;;5.10;;
37303;SDS011;23188;51.188;16.374;2023-05-07T19:24:12;6.90;;;5.20;;
37303;SDS011;23188;51.188;16.374;2023-05-07T19:28:14;8.00;;;5.90;;
37303;SDS011;23188;51.188;16.374;2023-05-07T19:32:16;6.40;;;5.70;;
37303;SDS011;23188;51.188;16.374;2023-05-07T19:36:18;7.20;;;5.20;;
37303;SDS011;23188;51.188;16.374;2023-05-07T19:40:20;7.10;;;6.00;;
37303;SDS011;23188;51.188;16.374;2023-05-07T19:44:22;9.50;;;7.50;;
37303;SDS011;23188;51.188;16.374;2023-05-07T19:48:25;7.40;;;6.50;;
37303;SDS011;23188;51.188;16.374;2023-05-07T19:52:26;12.40;;;6.00;;
37303;SDS011;23188;51.188;16.374;2023-05-07T20:00:37;9.20;;;6.40;;
37303;SDS011;23188;51.188;16.374;2023-05-07T20:04:38;10.40;;;7.60;;
37303;SDS011;23188;51.188;16.374;2023-05-07T20:08:40;7.70;;;6.40;;
37303;SDS011;23188;51.188;16.374;2023-05-07T20:12:43;7.60;;;5.10;;
37303;SDS011;23188;51.188;16.374;2023-05-07T20:16:44;12.40;;;6.80;;
37303;SDS011;23188;51.188;16.374;2023-05-07T20:20:46;8.10;;;7.00;;
37303;SDS011;23188;51.188;16.374;2023-05-07T20:24:47;9.50;;;6.80;;
37303;SDS011;23188;51.188;16.374;2023-05-07T20:28:49;9.20;;;7.30;;
37303;SDS011;23188;51.188;16.374;2023-05-07T20:32:50;7.40;;;6.70;;
37303;SDS011;23188;51.188;16.374;2023-05-07T20:36:52;7.30;;;5.80;;
37303;SDS011;23188;51.188;16.374;2023-05-07T20:40:53;7.60;;;6.40;;
37303;SDS011;23188;51.188;16.374;2023-05-07T20:44:55;6.70;;;6.10;;
37303;SDS011;23188;51.188;16.374;2023-05-07T20:48:57;5.50;;;5.00;;
37303;SDS011;23188;51.188;16.374;2023-05-07T20:52:58;7.30;;;6.10;;
37303;SDS011;23188;51.188;16.374;2023-05-07T20:57:00;7.70;;;6.90;;
37303;SDS011;23188;51.188;16.374;2023-05-07T21:01:02;5.50;;;4.90;;
37303;SDS011;23188;51.188;16.374;2023-05-07T21:05:04;9.30;;;7.20;;
37303;SDS011;23188;51.188;16.374;2023-05-07T21:09:15;7.90;;;6.90;;
37303;SDS011;23188;51.188;16.374;2023-05-07T21:13:16;8.70;;;6.80;;
37303;SDS011;23188;51.188;16.374;2023-05-07T21:17:18;8.90;;;6.70;;
37303;SDS011;23188;51.188;16.374;2023-05-07T21:21:20;8.60;;;6.10;;
37303;SDS011;23188;51.188;16.374;2023-05-07T21:25:21;6.60;;;5.40;;
37303;SDS011;23188;51.188;16.374;2023-05-07T21:29:22;7.50;;;6.30;;
37303;SDS011;23188;51.188;16.374;2023-05-07T21:33:25;8.10;;;5.90;;
37303;SDS011;23188;51.188;16.374;2023-05-07T21:37:26;9.70;;;6.80;;
37303;SDS011;23188;51.188;16.374;2023-05-07T21:41:27;8.90;;;6.40;;
37303;SDS011;23188;51.188;16.374;2023-05-07T21:45:29;7.30;;;6.20;;
37303;SDS011;23188;51.188;16.374;2023-05-07T21:49:30;9.50;;;6.00;;
37303;SDS011;23188;51.188;16.374;2023-05-07T21:53:32;6.60;;;6.00;;
37303;SDS011;23188;51.188;16.374;2023-05-07T21:57:34;5.50;;;5.00;;
37303;SDS011;23188;51.188;16.374;2023-05-07T22:01:37;7.50;;;4.70;;
37303;SDS011;23188;51.188;16.374;2023-05-07T22:05:38;6.70;;;5.50;;
37303;SDS011;23188;51.188;16.374;2023-05-07T22:09:45;5.70;;;5.10;;
37303;SDS011;23188;51.188;16.374;2023-05-07T22:13:46;7.70;;;5.40;;
37303;SDS011;23188;51.188;16.374;2023-05-07T22:17:48;5.90;;;5.30;;
37303;SDS011;23188;51.188;16.374;2023-05-07T22:21:49;7.90;;;6.20;;
37303;SDS011;23188;51.188;16.374;2023-05-07T22:25:51;6.80;;;5.90;;
37303;SDS011;23188;51.188;16.374;2023-05-07T22:34:28;7.10;;;5.40;;
37303;SDS011;23188;51.188;16.374;2023-05-07T22:38:30;6.80;;;5.70;;
37303;SDS011;23188;51.188;16.374;2023-05-07T22:42:34;7.80;;;5.50;;
37303;SDS011;23188;51.188;16.374;2023-05-07T22:46:37;7.10;;;4.80;;
37303;SDS011;23188;51.188;16.374;2023-05-07T22:50:39;4.80;;;4.40;;
37303;SDS011;23188;51.188;16.374;2023-05-07T22:54:42;5.60;;;4.70;;
37303;SDS011;23188;51.188;16.374;2023-05-07T22:58:45;5.90;;;4.70;;
37303;SDS011;23188;51.188;16.374;2023-05-07T23:02:47;7.40;;;6.50;;
37303;SDS011;23188;51.188;16.374;2023-05-07T23:06:49;6.90;;;5.40;;
37303;SDS011;23188;51.188;16.374;2023-05-07T23:10:52;5.90;;;5.30;;
37303;SDS011;23188;51.188;16.374;2023-05-07T23:14:56;8.40;;;5.10;;
37303;SDS011;23188;51.188;16.374;2023-05-07T23:18:58;8.20;;;6.90;;
37303;SDS011;23188;51.188;16.374;2023-05-07T23:23:00;11.10;;;5.80;;
37303;SDS011;23188;51.188;16.374;2023-05-07T23:27:03;6.80;;;6.10;;
37303;SDS011;23188;51.188;16.374;2023-05-07T23:31:06;7.80;;;7.00;;
37303;SDS011;23188;51.188;16.374;2023-05-07T23:35:09;21.80;;;6.90;;
37303;SDS011;23188;51.188;16.374;2023-05-07T23:39:11;12.90;;;7.20;;
37303;SDS011;23188;51.188;16.374;2023-05-07T23:43:13;9.30;;;7.20;;
37303;SDS011;23188;51.188;16.374;2023-05-07T23:47:15;9.30;;;5.40;;
37303;SDS011;23188;51.188;16.374;2023-05-07T23:51:17;8.80;;;6.70;;
37303;SDS011;23188;51.188;16.374;2023-05-07T23:55:20;7.20;;;5.80;;
37303;SDS011;23188;51.188;16.374;2023-05-07T23:59:23;6.70;;;5.10;;
